Main page
METAR-TAF:

METAR-TAF

Airports :

Xi'an, China

Xi'an Xianyang International Airport

latitude: 34-26N, longitude: 108-45E, elevation: 479 m

Current weather observation

The report was made 59 minutes ago, at 04:00 UTC
Wind 4 kt from variable directions
Temperature 37°C
Humidity 42%
Pressure 1006 hPa
Visibility 10 km or more
no clouds below 1500 m and no cumulonimbus

METAR: ZLXY 220400Z VRB02MPS CAVOK 37/22 Q1006 NOSIG

Time: 12:59 (04:59 UTC)

Forecast

The report was made 9 hours and 52 minutes ago, at 19:07 UTC
Forecast valid from 22 at 00 UTC to 22 at 24 UTC
Wind 6 kt from the East/Northeast
Visibility: 5000 m
mist

TAF: ZLXY 211907Z 2200/2224 06003MPS 5000 BR NSC TX41/2208Z TN29/2221Z

Weather observations and forecasts of more than 4000 airports (METAR and TAF reports).

The available stations are represented by yellow and red dots on the map.

Hover mouse over dot to see the name of the station.

Then click to see weather observations and forecasts.

To change the map : click on the green buttons with a black cross to zoom in, on the green button with a dash to zoom out, or on the green arrows for adjacent maps.


METAR-TAF: